createdAt,value
2022-12-18T00:01:34.723Z,42.90
2022-12-18T00:04:06.075Z,25.70
2022-12-18T00:06:36.589Z,40.90
2022-12-18T00:09:05.277Z,29.40
2022-12-18T00:11:35.107Z,35.80
2022-12-18T00:14:03.968Z,27.40
2022-12-18T00:16:34.405Z,36.30
2022-12-18T00:19:03.071Z,36.10
2022-12-18T00:21:34.581Z,36.90
2022-12-18T00:24:03.428Z,31.80
2022-12-18T00:26:34.141Z,28.70
2022-12-18T00:29:18.107Z,21.80
2022-12-18T00:31:47.125Z,34.00
2022-12-18T00:34:15.969Z,33.60
2022-12-18T00:36:44.656Z,32.50
2022-12-18T00:39:14.366Z,28.40
2022-12-18T00:42:05.191Z,31.40
2022-12-18T00:44:33.958Z,30.70
2022-12-18T00:47:03.266Z,32.30
2022-12-18T00:49:31.847Z,30.40
2022-12-18T00:52:00.623Z,28.30
2022-12-18T00:54:29.413Z,25.90
2022-12-18T00:56:58.127Z,33.50
2022-12-18T00:59:27.010Z,26.50
2022-12-18T01:01:55.969Z,28.30
2022-12-18T01:04:24.568Z,31.80
2022-12-18T01:06:53.470Z,27.50
2022-12-18T01:09:22.450Z,28.00
2022-12-18T01:11:51.356Z,27.80
2022-12-18T01:14:20.149Z,25.10
2022-12-18T01:16:49.415Z,26.50
2022-12-18T01:19:18.154Z,31.70
2022-12-18T01:21:48.766Z,27.30
2022-12-18T01:24:17.537Z,32.00
2022-12-18T01:26:46.251Z,27.00
2022-12-18T01:29:16.970Z,25.40
2022-12-18T01:31:45.785Z,28.70
2022-12-18T01:34:14.834Z,26.30
2022-12-18T01:36:43.947Z,27.10
2022-12-18T01:39:14.327Z,27.70
2022-12-18T01:42:03.230Z,26.10
2022-12-18T01:45:01.830Z,26.90
2022-12-18T01:47:30.488Z,26.90
2022-12-18T01:50:02.518Z,30.80
2022-12-18T01:52:33.567Z,24.40
2022-12-18T01:55:04.530Z,32.40
2022-12-18T01:57:33.950Z,27.70
2022-12-18T02:00:09.288Z,27.80
2022-12-18T02:02:45.703Z,24.60
2022-12-18T02:05:20.000Z,25.70
2022-12-18T02:07:59.624Z,26.20
2022-12-18T02:10:40.692Z,27.70
2022-12-18T02:13:22.556Z,23.70
2022-12-18T02:16:29.829Z,26.50
2022-12-18T02:19:02.138Z,26.60
2022-12-18T02:21:38.222Z,23.90
2022-12-18T02:24:22.448Z,22.70
2022-12-18T02:27:00.429Z,26.60
2022-12-18T02:29:42.557Z,30.90
2022-12-18T02:32:17.078Z,25.00
2022-12-18T02:34:46.168Z,25.10
2022-12-18T02:37:18.750Z,28.60
2022-12-18T02:39:49.551Z,27.20
2022-12-18T02:42:19.174Z,24.90
2022-12-18T02:44:50.830Z,32.80
2022-12-18T02:47:25.577Z,22.30
2022-12-18T02:50:07.366Z,30.70
2022-12-18T02:52:58.367Z,25.40
2022-12-18T02:55:49.686Z,30.90
2022-12-18T02:58:36.187Z,21.30
2022-12-18T03:01:17.214Z,26.90
2022-12-18T03:03:48.925Z,21.60
2022-12-18T03:06:33.893Z,25.50
2022-12-18T03:09:09.921Z,26.80
2022-12-18T03:12:00.648Z,25.10
2022-12-18T03:14:31.555Z,25.00
2022-12-18T03:17:04.224Z,25.30
2022-12-18T03:19:35.697Z,34.20
2022-12-18T03:22:05.212Z,25.80
2022-12-18T03:24:42.287Z,25.60
2022-12-18T03:27:14.168Z,17.80
2022-12-18T03:29:54.177Z,27.60
2022-12-18T03:32:30.010Z,27.10
2022-12-18T03:35:05.006Z,24.90
2022-12-18T03:37:35.717Z,28.60
2022-12-18T03:40:06.600Z,13.20
2022-12-18T03:42:55.323Z,26.30
2022-12-18T03:45:30.076Z,28.90
2022-12-18T03:48:20.145Z,31.20
2022-12-18T03:51:07.723Z,28.30
2022-12-18T03:53:49.045Z,18.30
2022-12-18T03:56:18.766Z,23.10
2022-12-18T03:58:48.658Z,26.60
2022-12-18T04:01:27.690Z,23.70
2022-12-18T04:03:57.795Z,22.60
2022-12-18T04:06:28.563Z,13.70
2022-12-18T04:08:58.921Z,19.90
2022-12-18T04:11:29.216Z,24.70
2022-12-18T04:13:59.095Z,20.40
2022-12-18T04:16:28.536Z,18.60
2022-12-18T04:18:58.826Z,21.60
2022-12-18T04:21:28.445Z,24.60
2022-12-18T04:23:56.911Z,19.20
2022-12-18T04:26:26.725Z,16.10
2022-12-18T04:29:07.506Z,23.30
2022-12-18T04:31:36.152Z,16.80
2022-12-18T04:34:05.811Z,19.00
2022-12-18T04:36:40.712Z,26.20
2022-12-18T04:39:09.604Z,20.50
2022-12-18T04:41:38.706Z,23.70
2022-12-18T04:44:07.801Z,23.50
2022-12-18T04:46:36.572Z,25.40
2022-12-18T04:49:06.524Z,28.90
2022-12-18T04:51:35.595Z,26.40
2022-12-18T04:54:05.510Z,30.60
2022-12-18T04:56:34.433Z,25.70
2022-12-18T04:59:03.407Z,23.50
2022-12-18T05:01:34.814Z,18.00
2022-12-18T05:04:05.318Z,21.70
2022-12-18T05:06:33.970Z,25.90
2022-12-18T05:09:03.165Z,22.70
2022-12-18T05:11:31.733Z,21.20
2022-12-18T05:14:00.727Z,23.40
2022-12-18T05:16:29.387Z,22.60
2022-12-18T05:18:58.306Z,17.00
2022-12-18T05:21:26.989Z,18.80
2022-12-18T05:23:55.674Z,25.90
2022-12-18T05:26:24.666Z,24.60
2022-12-18T05:28:53.367Z,26.50
2022-12-18T05:31:22.274Z,15.30
2022-12-18T05:33:51.147Z,27.50
2022-12-18T05:36:19.813Z,29.90
2022-12-18T05:38:48.607Z,30.20
2022-12-18T05:41:18.007Z,28.80
2022-12-18T05:43:46.808Z,22.20
2022-12-18T05:46:18.906Z,25.00
2022-12-18T05:48:47.858Z,19.00
2022-12-18T05:51:19.516Z,27.20
2022-12-18T05:53:48.720Z,26.10
2022-12-18T05:56:20.569Z,20.40
2022-12-18T05:58:49.359Z,17.00
2022-12-18T06:01:21.360Z,24.20
2022-12-18T06:03:50.878Z,23.60
2022-12-18T06:06:23.618Z,29.90
2022-12-18T06:08:53.320Z,26.90
2022-12-18T06:11:27.223Z,27.20
2022-12-18T06:13:59.139Z,17.50
2022-12-18T06:16:29.499Z,25.00
2022-12-18T06:18:59.387Z,21.50
2022-12-18T06:21:30.369Z,21.10
2022-12-18T06:24:01.004Z,24.00
2022-12-18T06:26:29.688Z,24.40
2022-12-18T06:28:58.462Z,27.70
2022-12-18T06:31:27.942Z,24.30
2022-12-18T06:33:57.993Z,19.30
2022-12-18T06:36:26.967Z,21.70
2022-12-18T06:38:55.861Z,26.80
2022-12-18T06:41:25.063Z,17.10
2022-12-18T06:43:59.334Z,17.30
2022-12-18T06:46:28.692Z,19.60
2022-12-18T06:48:57.574Z,20.00
2022-12-18T06:51:27.010Z,23.50
2022-12-18T06:53:56.491Z,16.20
2022-12-18T06:56:25.370Z,16.40
2022-12-18T06:58:54.573Z,18.30
2022-12-18T07:01:23.612Z,19.60
2022-12-18T07:03:57.189Z,13.40
2022-12-18T07:06:28.392Z,18.30
2022-12-18T07:08:57.511Z,15.70
2022-12-18T07:11:26.537Z,15.90
2022-12-18T07:13:56.604Z,15.30
2022-12-18T07:16:26.092Z,19.80
2022-12-18T07:18:56.616Z,16.60
2022-12-18T07:21:26.352Z,16.30
2022-12-18T07:23:55.572Z,20.20
2022-12-18T07:26:25.914Z,17.80
2022-12-18T07:28:57.954Z,19.00
2022-12-18T07:31:27.952Z,16.70
2022-12-18T07:33:57.991Z,20.60
2022-12-18T07:36:26.959Z,21.40
2022-12-18T07:39:00.370Z,21.40
2022-12-18T07:41:29.898Z,24.40
2022-12-18T07:43:59.070Z,21.10
2022-12-18T07:46:28.155Z,25.10
2022-12-18T07:48:57.347Z,19.90
2022-12-18T07:51:26.480Z,18.30
2022-12-18T07:53:57.746Z,18.50
2022-12-18T07:56:28.737Z,21.80
2022-12-18T07:58:59.707Z,22.20
2022-12-18T08:01:28.926Z,22.10
2022-12-18T08:03:59.046Z,22.30
2022-12-18T08:06:27.795Z,20.60
2022-12-18T08:08:57.490Z,18.80
2022-12-18T08:11:28.113Z,22.40
2022-12-18T08:13:58.284Z,21.10
2022-12-18T08:16:27.404Z,18.50
2022-12-18T08:18:56.424Z,17.70
2022-12-18T08:21:32.215Z,21.10
2022-12-18T08:24:02.758Z,26.80
2022-12-18T08:26:32.659Z,21.30
2022-12-18T08:29:02.207Z,25.90
2022-12-18T08:31:32.729Z,19.90
2022-12-18T08:34:01.863Z,16.50
2022-12-18T08:36:30.632Z,26.50
2022-12-18T08:38:59.342Z,27.60
2022-12-18T08:41:29.283Z,17.30
2022-12-18T08:44:17.311Z,21.50
2022-12-18T08:46:48.853Z,24.70
2022-12-18T08:49:17.417Z,22.60
2022-12-18T08:51:46.511Z,23.70
2022-12-18T08:54:15.520Z,21.30
2022-12-18T08:56:45.322Z,13.80
2022-12-18T08:59:19.364Z,21.60
2022-12-18T09:01:49.938Z,18.80
2022-12-18T09:04:18.735Z,19.20
2022-12-18T09:06:47.530Z,20.60
2022-12-18T09:09:16.416Z,18.80
2022-12-18T09:11:45.523Z,22.00
2022-12-18T09:14:14.430Z,19.60
2022-12-18T09:16:43.926Z,17.20
2022-12-18T09:19:15.260Z,23.30
2022-12-18T09:21:47.954Z,17.20
2022-12-18T09:24:18.600Z,26.20
2022-12-18T09:26:47.719Z,21.40
2022-12-18T09:29:20.142Z,27.60
2022-12-18T09:31:50.867Z,18.20
2022-12-18T09:34:22.322Z,16.90
2022-12-18T09:36:53.077Z,15.90
2022-12-18T09:39:24.163Z,23.30
2022-12-18T09:41:56.516Z,25.90
2022-12-18T09:44:37.746Z,22.90
2022-12-18T09:47:19.351Z,21.30
2022-12-18T09:49:51.488Z,15.70
2022-12-18T09:52:24.383Z,21.10
2022-12-18T09:54:58.307Z,24.70
2022-12-18T09:57:27.538Z,25.20
2022-12-18T10:00:32.113Z,22.90
2022-12-18T10:03:04.667Z,21.50
2022-12-18T10:05:43.798Z,19.80
2022-12-18T10:08:52.135Z,28.70
2022-12-18T10:11:34.345Z,17.10
2022-12-18T10:14:28.993Z,26.70
2022-12-18T10:17:42.477Z,16.90
2022-12-18T10:20:11.256Z,19.50
2022-12-18T10:23:03.306Z,26.60
2022-12-18T10:26:11.083Z,28.80
2022-12-18T10:28:42.170Z,21.90
2022-12-18T10:31:29.131Z,23.10
2022-12-18T10:33:57.834Z,19.60
2022-12-18T10:36:26.722Z,22.80
2022-12-18T10:38:55.411Z,22.80
2022-12-18T10:41:27.426Z,23.30
2022-12-18T10:44:16.661Z,22.60
2022-12-18T10:46:50.485Z,24.90
2022-12-18T10:49:29.236Z,26.60
2022-12-18T10:52:18.151Z,31.60
2022-12-18T10:54:52.807Z,21.90
2022-12-18T10:57:27.767Z,29.10
2022-12-18T10:59:58.909Z,26.20
2022-12-18T11:02:37.053Z,29.40
2022-12-18T11:05:27.343Z,24.50
2022-12-18T11:07:57.863Z,17.70
2022-12-18T11:10:31.760Z,24.90
2022-12-18T11:13:18.584Z,20.30
2022-12-18T11:15:47.958Z,23.80
2022-12-18T11:18:24.341Z,19.80
2022-12-18T11:20:58.641Z,24.90
2022-12-18T11:23:28.275Z,23.70
2022-12-18T11:26:03.161Z,18.30
2022-12-18T11:28:42.680Z,14.70
2022-12-18T11:31:29.243Z,20.70
2022-12-18T11:36:56.424Z,19.30
2022-12-18T11:39:33.402Z,17.50
2022-12-18T11:42:15.854Z,20.50
2022-12-18T11:45:20.322Z,19.90
2022-12-18T11:48:05.089Z,19.30
2022-12-18T11:50:52.410Z,16.80
2022-12-18T11:53:22.021Z,19.70
2022-12-18T11:56:04.582Z,21.20
2022-12-18T11:58:39.589Z,18.50
2022-12-18T12:01:43.951Z,29.10
2022-12-18T12:04:32.592Z,27.50
2022-12-18T12:07:29.305Z,27.40
2022-12-18T12:10:21.822Z,23.70
2022-12-18T12:12:57.184Z,21.30
2022-12-18T12:15:54.489Z,27.30
2022-12-18T12:18:57.710Z,24.20
2022-12-18T12:21:42.600Z,25.70
2022-12-18T12:24:23.651Z,26.50
2022-12-18T12:27:30.342Z,22.40
2022-12-18T12:30:05.263Z,28.60
2022-12-18T12:32:58.821Z,27.50
2022-12-18T12:35:39.102Z,18.70
2022-12-18T12:38:14.130Z,30.60
2022-12-18T12:40:54.965Z,33.90
2022-12-18T12:43:50.371Z,24.40
2022-12-18T12:46:22.827Z,25.40
2022-12-18T12:49:01.232Z,27.80
2022-12-18T12:51:34.504Z,33.90
2022-12-18T12:54:05.950Z,25.00
2022-12-18T12:56:47.884Z,25.00
2022-12-18T12:59:31.980Z,28.70
2022-12-18T13:02:22.507Z,31.10
2022-12-18T13:05:24.863Z,27.90
2022-12-18T13:08:03.039Z,28.30
2022-12-18T13:10:35.767Z,21.50
2022-12-18T13:13:10.672Z,29.70
2022-12-18T13:15:48.121Z,28.40
2022-12-18T13:18:20.359Z,32.00
2022-12-18T13:20:59.923Z,32.20
2022-12-18T13:23:37.759Z,22.20
2022-12-18T13:26:11.072Z,33.70
2022-12-18T13:28:50.602Z,27.70
2022-12-18T13:31:32.619Z,21.70
2022-12-18T13:34:34.673Z,26.30
2022-12-18T13:37:38.000Z,22.30
2022-12-18T13:40:46.090Z,31.80
2022-12-18T13:43:21.288Z,24.10
2022-12-18T13:46:11.325Z,26.00
2022-12-18T13:48:41.940Z,24.20
2022-12-18T13:51:20.290Z,35.90
2022-12-18T13:54:19.143Z,28.90
2022-12-18T13:56:50.017Z,27.80
2022-12-18T13:59:25.085Z,23.90
2022-12-18T14:01:58.810Z,19.50
2022-12-18T14:04:29.990Z,27.20
2022-12-18T14:07:07.915Z,32.00
2022-12-18T14:10:41.229Z,30.70
2022-12-18T14:13:00.994Z,30.10
2022-12-18T14:16:00.040Z,29.80
2022-12-18T14:18:46.000Z,28.00
2022-12-18T14:21:35.688Z,22.20
2022-12-18T14:24:07.527Z,24.20
2022-12-18T14:26:36.952Z,25.00
2022-12-18T14:29:25.424Z,32.30
2022-12-18T14:32:18.979Z,30.10
2022-12-18T14:34:57.544Z,26.00
2022-12-18T14:37:28.867Z,31.30
2022-12-18T14:40:07.296Z,25.40
2022-12-18T14:42:39.869Z,27.70
2022-12-18T14:45:40.942Z,25.40
2022-12-18T14:48:23.149Z,29.70
2022-12-18T14:51:18.708Z,24.20
2022-12-18T14:53:54.372Z,22.40
2022-12-18T14:56:26.583Z,27.30
2022-12-18T14:59:00.980Z,26.80
2022-12-18T15:01:40.690Z,22.60
2022-12-18T15:04:27.945Z,23.50
2022-12-18T15:07:15.681Z,22.60
2022-12-18T15:10:04.226Z,19.80
2022-12-18T15:12:51.200Z,30.40
2022-12-18T15:15:39.806Z,24.90
2022-12-18T15:18:13.463Z,26.40
2022-12-18T15:20:50.085Z,20.90
2022-12-18T15:23:32.863Z,25.60
2022-12-18T15:26:07.776Z,20.30
2022-12-18T15:29:10.131Z,31.00
2022-12-18T15:31:48.597Z,26.00
2022-12-18T15:34:28.537Z,22.80
2022-12-18T15:36:59.857Z,32.30
2022-12-18T15:39:31.325Z,28.70
2022-12-18T15:42:26.098Z,26.80
2022-12-18T15:44:57.577Z,26.20
2022-12-18T15:47:28.393Z,16.40
2022-12-18T15:49:59.183Z,30.70
2022-12-18T15:52:30.161Z,26.70
2022-12-18T15:55:23.052Z,29.70
2022-12-18T15:57:57.521Z,20.20
2022-12-18T16:00:28.168Z,27.90
2022-12-18T16:02:58.304Z,21.90
2022-12-18T16:05:31.261Z,19.10
2022-12-18T16:08:04.472Z,28.90
2022-12-18T16:10:40.084Z,33.40
2022-12-18T16:13:15.751Z,30.20
2022-12-18T16:15:46.114Z,26.40
2022-12-18T16:18:18.269Z,27.00
2022-12-18T16:20:53.358Z,23.10
2022-12-18T16:23:27.427Z,21.60
2022-12-18T16:26:00.796Z,32.70
2022-12-18T16:28:32.557Z,22.30
2022-12-18T16:31:06.315Z,30.70
2022-12-18T16:33:37.287Z,31.10
2022-12-18T16:36:08.279Z,22.10
2022-12-18T16:38:57.388Z,28.30
2022-12-18T16:41:36.109Z,28.50
2022-12-18T16:44:06.963Z,17.80
2022-12-18T16:46:37.997Z,24.70
2022-12-18T16:49:10.668Z,39.40
2022-12-18T16:51:40.322Z,36.00
2022-12-18T16:54:15.946Z,22.90
2022-12-18T16:56:52.052Z,33.40
2022-12-18T16:59:24.457Z,27.80
2022-12-18T17:01:58.052Z,49.60
2022-12-18T17:04:29.313Z,46.40
2022-12-18T17:07:01.552Z,36.00
2022-12-18T17:09:32.722Z,44.10
2022-12-18T17:12:04.720Z,57.80
2022-12-18T17:14:39.057Z,35.80
2022-12-18T17:17:21.854Z,49.90
2022-12-18T17:19:53.380Z,51.00
2022-12-18T17:22:26.851Z,51.30
2022-12-18T17:24:57.576Z,61.60
2022-12-18T17:27:29.670Z,37.10
2022-12-18T17:30:01.920Z,22.60
2022-12-18T17:32:33.108Z,42.20
2022-12-18T17:35:07.358Z,49.80
2022-12-18T17:37:40.179Z,35.60
2022-12-18T17:40:15.459Z,37.30
2022-12-18T17:42:45.396Z,52.80
2022-12-18T17:45:19.585Z,64.00
2022-12-18T17:47:53.178Z,33.40
2022-12-18T17:50:29.161Z,35.80
2022-12-18T17:53:01.846Z,39.10
2022-12-18T17:55:32.350Z,44.40
2022-12-18T17:58:03.201Z,56.80
2022-12-18T18:00:35.908Z,43.40
2022-12-18T18:03:06.145Z,70.30
2022-12-18T18:05:38.207Z,65.30
2022-12-18T18:08:08.325Z,55.40
2022-12-18T18:10:39.524Z,58.50
2022-12-18T18:13:46.673Z,69.70
2022-12-18T18:16:18.485Z,80.20
2022-12-18T18:18:50.046Z,68.90
2022-12-18T18:21:24.604Z,57.30
2022-12-18T18:23:57.526Z,53.30
2022-12-18T18:26:31.446Z,32.90
2022-12-18T18:29:05.752Z,33.10
2022-12-18T18:31:41.301Z,33.40
2022-12-18T18:34:20.192Z,28.10
2022-12-18T18:36:51.332Z,31.50
2022-12-18T18:39:24.351Z,45.20
2022-12-18T18:41:56.866Z,24.20
2022-12-18T18:44:27.910Z,25.00
2022-12-18T18:46:58.800Z,30.20
2022-12-18T18:49:30.179Z,24.90
2022-12-18T18:52:01.407Z,30.20
2022-12-18T18:54:33.893Z,30.90
2022-12-18T18:57:20.543Z,31.00
2022-12-18T18:59:54.541Z,45.00
2022-12-18T19:02:26.787Z,32.70
2022-12-18T19:04:56.771Z,31.90
2022-12-18T19:07:31.364Z,21.80
2022-12-18T19:10:05.376Z,35.70
2022-12-18T19:12:56.581Z,34.70
2022-12-18T19:15:27.910Z,29.90
2022-12-18T19:17:59.376Z,21.90
2022-12-18T19:20:35.368Z,38.30
2022-12-18T19:23:06.271Z,26.60
2022-12-18T19:25:42.118Z,37.90
2022-12-18T19:28:21.602Z,30.00
2022-12-18T19:30:59.218Z,26.80
2022-12-18T19:33:44.097Z,23.30
2022-12-18T19:36:30.215Z,28.00
2022-12-18T19:39:13.091Z,29.00
2022-12-18T19:41:53.274Z,45.80
2022-12-18T19:44:24.881Z,22.90
2022-12-18T19:46:57.890Z,31.00
2022-12-18T19:49:28.883Z,14.00
2022-12-18T19:52:00.862Z,43.90
2022-12-18T19:54:33.191Z,21.60
2022-12-18T19:57:08.653Z,23.80
2022-12-18T19:59:47.891Z,30.00
2022-12-18T20:02:23.503Z,20.60
2022-12-18T20:04:56.300Z,17.70
2022-12-18T20:07:29.201Z,27.80
2022-12-18T20:10:08.736Z,18.30
2022-12-18T20:12:43.289Z,36.30
2022-12-18T20:15:16.442Z,19.80
2022-12-18T20:17:50.964Z,19.40
2022-12-18T20:20:22.421Z,23.30
2022-12-18T20:22:53.089Z,25.60
2022-12-18T20:25:23.874Z,14.20
2022-12-18T20:27:54.339Z,26.20
2022-12-18T20:30:26.611Z,44.50
2022-12-18T20:33:02.426Z,30.30
2022-12-18T20:35:36.376Z,28.10
2022-12-18T20:38:07.311Z,37.30
2022-12-18T20:40:38.238Z,33.50
2022-12-18T20:43:10.370Z,33.90
2022-12-18T20:45:45.628Z,31.30
2022-12-18T20:48:26.735Z,18.20
2022-12-18T20:51:06.959Z,23.00
2022-12-18T20:53:41.810Z,36.60
2022-12-18T20:56:23.588Z,27.70
2022-12-18T20:58:58.294Z,25.80
2022-12-18T21:01:29.684Z,27.40
2022-12-18T21:04:01.933Z,26.20
2022-12-18T21:06:32.664Z,58.70
2022-12-18T21:09:02.876Z,52.90
2022-12-18T21:11:53.473Z,38.50
2022-12-18T21:14:26.601Z,23.60
2022-12-18T21:16:57.236Z,30.20
2022-12-18T21:19:28.170Z,45.80
2022-12-18T21:21:57.942Z,31.00
2022-12-18T21:24:28.183Z,55.00
2022-12-18T21:27:02.334Z,26.40
2022-12-18T21:29:31.682Z,29.30
2022-12-18T21:32:01.700Z,45.40
2022-12-18T21:34:32.895Z,34.70
2022-12-18T21:37:02.760Z,32.60
2022-12-18T21:39:32.165Z,42.30
2022-12-18T21:42:20.129Z,19.40
2022-12-18T21:44:50.004Z,23.30
2022-12-18T21:47:22.821Z,38.60
2022-12-18T21:49:53.756Z,26.00
2022-12-18T21:52:32.270Z,31.80
2022-12-18T21:55:08.983Z,32.60
2022-12-18T21:57:39.855Z,31.80
2022-12-18T22:00:18.327Z,36.30
2022-12-18T22:03:15.563Z,28.60
2022-12-18T22:05:39.404Z,32.50
2022-12-18T22:08:08.801Z,37.10
2022-12-18T22:10:38.497Z,33.50
2022-12-18T22:13:08.527Z,38.70
2022-12-18T22:15:37.760Z,26.60
2022-12-18T22:18:06.822Z,34.70
2022-12-18T22:20:35.705Z,40.60
2022-12-18T22:23:06.028Z,46.30
2022-12-18T22:25:39.909Z,18.00
2022-12-18T22:28:27.659Z,37.00
2022-12-18T22:30:59.666Z,33.40
2022-12-18T22:33:29.246Z,25.50
2022-12-18T22:35:58.020Z,22.30
2022-12-18T22:38:27.123Z,45.00
2022-12-18T22:40:56.850Z,29.80
2022-12-18T22:43:25.942Z,25.70
2022-12-18T22:45:55.723Z,38.00
2022-12-18T22:48:25.150Z,52.00
2022-12-18T22:50:56.747Z,20.80
2022-12-18T22:53:28.257Z,42.60
2022-12-18T22:56:07.082Z,42.60
2022-12-18T22:58:36.587Z,65.00
2022-12-18T23:01:06.603Z,36.00
2022-12-18T23:03:36.377Z,34.20
2022-12-18T23:06:06.840Z,30.80
2022-12-18T23:08:36.440Z,39.60
2022-12-18T23:11:05.577Z,40.80
2022-12-18T23:13:34.955Z,35.20
2022-12-18T23:16:14.265Z,29.40
2022-12-18T23:18:43.680Z,30.90
2022-12-18T23:21:17.263Z,30.00
2022-12-18T23:23:46.159Z,27.20
2022-12-18T23:26:25.746Z,22.40
2022-12-18T23:28:56.939Z,39.80
2022-12-18T23:31:30.901Z,26.20
2022-12-18T23:34:01.063Z,27.70
2022-12-18T23:36:30.063Z,20.90
2022-12-18T23:39:02.246Z,31.60
2022-12-18T23:41:32.082Z,42.20
2022-12-18T23:44:01.338Z,28.70
2022-12-18T23:46:31.074Z,50.40
2022-12-18T23:49:00.866Z,45.60
2022-12-18T23:51:31.702Z,36.10
2022-12-18T23:54:01.708Z,31.80
2022-12-18T23:56:31.165Z,36.70
2022-12-18T23:58:59.904Z,32.60
